Algosoo — VGJD — position and weather

sailwx.info

Track history (hours):
 
Tides and Currents Weather Stations Pressure Air Temp Water Temp Dewpoint Dewpoint Depression Visibility Wind Speed Wind Dir Waves Ship Positions

Algosoo

Last reported at 2015-Dec-29 16:28 UTC. Time now 2016-Jul-29 00:10 UTC.
Position N 43°16' W 079°25'.
Warning: this ship's position is months out of date.

Length 223 m; draft 6.8 m.

Type: Cargo ship. MMSI: 316001799.

Date/timePositionNaut miles runAvg speedWind from/ knotsBaromVisibWave heightAir tempDewpointWater temp
2015-Dec-29 16:28N 43°16' W 079°25'9 9.5
2015-Dec-29 15:34N 43°15' W 079°13'2 2.0
2015-Dec-29 14:34N 43°13' W 079°13'1 1.4
2015-Dec-29 13:34N 43°11' W 079°12'2 2.0
2015-Dec-29 12:34N 43°09' W 079°12'1 1.1
2015-Dec-29 11:33N 43°08' W 079°12'0 0.3
2015-Dec-29 10:32N 43°08' W 079°12'  
2015-Dec-24 19:33N 43°01' W 079°13'6 6.3
2015-Dec-24 18:33N 43°07' W 079°12'0 0.0
2015-Dec-24 17:33N 43°07' W 079°12'1 0.5
2015-Dec-24 16:33N 43°07' W 079°12'1 0.5
2015-Dec-24 15:33N 43°08' W 079°12'0 0.2
2015-Dec-24 14:34N 43°08' W 079°12'0 0.4
2015-Dec-24 13:34N 43°08' W 079°12'1 1.3
2015-Dec-24 12:34N 43°10' W 079°12'2 1.9
2015-Dec-24 11:34N 43°12' W 079°12'2 1.5
2015-Dec-24 10:33N 43°13' W 079°13'0 0.4
2015-Dec-24 09:33N 43°13' W 079°13'0 0.2
2015-Dec-24 08:34N 43°14' W 079°13'4 4.1
2015-Dec-24 07:33N 43°17' W 079°17'1111.5
2015-Dec-24 06:33N 43°19' W 079°32'2 0.2
2015-Dec-23 17:33N 43°17' W 079°31'1010.2
2015-Dec-23 16:33N 43°16' W 079°17'4 3.9
2015-Dec-23 15:33N 43°13' W 079°13'2 1.5
2015-Dec-23 14:34N 43°12' W 079°12'2 2.2
2015-Dec-23 13:34N 43°10' W 079°12'1 1.1
2015-Dec-23 12:34N 43°08' W 079°12'0 0.3
2015-Dec-23 11:34N 43°08' W 079°12'1 0.6
2015-Dec-23 10:34N 43°08' W 079°12'1 1.4
2015-Dec-23 09:33N 43°06' W 079°12'7 6.4
2015-Dec-23 08:24N 42°59' W 079°13'35 5.7
2015-Dec-23 02:14N 42°34' W 079°48'710.4
2015-Dec-23 01:33N 42°31' W 079°56'  
Track history (hours):
 
Tides and Currents Weather Stations Pressure Air Temp Water Temp Dewpoint Dewpoint Depression Visibility Wind Speed Wind Dir Waves Ship Positions

Algosoo

Last reported at 2015-Dec-29 16:28 UTC. Time now 2016-Jul-29 00:10 UTC.
Position N 43°16' W 079°25'.
Warning: this ship's position is months out of date.

Length 223 m; draft 6.8 m.

Type: Cargo ship. MMSI: 316001799.

Date/timePositionNaut miles runAvg speedWind from/ knotsBaromVisibWave heightAir tempDewpointWater temp
2015-Dec-29 16:28N 43°16' W 079°25'9 9.5
2015-Dec-29 15:34N 43°15' W 079°13'2 2.0
2015-Dec-29 14:34N 43°13' W 079°13'1 1.4
2015-Dec-29 13:34N 43°11' W 079°12'2 2.0
2015-Dec-29 12:34N 43°09' W 079°12'1 1.1
2015-Dec-29 11:33N 43°08' W 079°12'0 0.3
2015-Dec-29 10:32N 43°08' W 079°12'  
2015-Dec-24 19:33N 43°01' W 079°13'6 6.3
2015-Dec-24 18:33N 43°07' W 079°12'0 0.0
2015-Dec-24 17:33N 43°07' W 079°12'1 0.5
2015-Dec-24 16:33N 43°07' W 079°12'1 0.5
2015-Dec-24 15:33N 43°08' W 079°12'0 0.2
2015-Dec-24 14:34N 43°08' W 079°12'0 0.4
2015-Dec-24 13:34N 43°08' W 079°12'1 1.3
2015-Dec-24 12:34N 43°10' W 079°12'2 1.9
2015-Dec-24 11:34N 43°12' W 079°12'2 1.5
2015-Dec-24 10:33N 43°13' W 079°13'0 0.4
2015-Dec-24 09:33N 43°13' W 079°13'0 0.2
2015-Dec-24 08:34N 43°14' W 079°13'4 4.1
2015-Dec-24 07:33N 43°17' W 079°17'1111.5
2015-Dec-24 06:33N 43°19' W 079°32'2 0.2
2015-Dec-23 17:33N 43°17' W 079°31'1010.2
2015-Dec-23 16:33N 43°16' W 079°17'4 3.9
2015-Dec-23 15:33N 43°13' W 079°13'2 1.5
2015-Dec-23 14:34N 43°12' W 079°12'2 2.2
2015-Dec-23 13:34N 43°10' W 079°12'1 1.1
2015-Dec-23 12:34N 43°08' W 079°12'0 0.3
2015-Dec-23 11:34N 43°08' W 079°12'1 0.6
2015-Dec-23 10:34N 43°08' W 079°12'1 1.4
2015-Dec-23 09:33N 43°06' W 079°12'7 6.4
2015-Dec-23 08:24N 42°59' W 079°13'35 5.7
2015-Dec-23 02:14N 42°34' W 079°48'710.4
2015-Dec-23 01:33N 42°31' W 079°56'  

Dump ship's entire track history